CCM156 LFKJ-LFML
Flight info
| Callsign | CCM156 |
|---|---|
| Flight time | 0h 47m |
| Altitude | 24000 |
| Route | VAREK M623 OMARD A3 RUBIT/N0390F180 G7 LANKO |
| Aircraft | A320/M-SDE3FGHIRWY/LB1 |
Departure
| Time | 2026-04-28 19:00 |
|---|---|
| Airport | Ajaccio Napoléon Bonaparte airport (LFKJ) |
Arrival
| Time | 2026-04-28 19:47 |
|---|---|
| Airport | Marseille Provence Airport (LFML) |
| Time | Latitude | Longitude | Altitude | Speed | Heading |
|---|---|---|---|---|---|
| 2026-04-28 17:34 | 41.91901 | 8.79542 | 26 ft | 0 kts | 346° |
| 2026-04-28 18:51 | 41.91911 | 8.79546 | 29 ft | 2 kts | 34° |
| 2026-04-28 18:51 | 41.91915 | 8.79600 | 26 ft | 12 kts | 75° |
| 2026-04-28 18:52 | 41.91979 | 8.79657 | 26 ft | 11 kts | 24° |
| 2026-04-28 18:52 | 41.92042 | 8.79696 | 29 ft | 10 kts | 25° |
| 2026-04-28 18:52 | 41.92139 | 8.79757 | 26 ft | 21 kts | 26° |
| 2026-04-28 18:52 | 41.92277 | 8.79843 | 30 ft | 23 kts | 24° |
| 2026-04-28 18:53 | 41.92425 | 8.79936 | 26 ft | 24 kts | 26° |
| 2026-04-28 18:53 | 41.92576 | 8.80030 | 27 ft | 25 kts | 25° |
| 2026-04-28 18:53 | 41.92726 | 8.80122 | 27 ft | 22 kts | 27° |
| 2026-04-28 18:53 | 41.92829 | 8.80226 | 27 ft | 16 kts | 44° |
| 2026-04-28 18:54 | 41.92901 | 8.80323 | 28 ft | 13 kts | 47° |
| 2026-04-28 18:54 | 41.92942 | 8.80381 | 30 ft | 0 kts | 46° |
| 2026-04-28 18:55 | 41.92943 | 8.80383 | 30 ft | 2 kts | 47° |
| 2026-04-28 18:55 | 41.92962 | 8.80471 | 31 ft | 8 kts | 98° |
| 2026-04-28 18:56 | 41.92960 | 8.80480 | 32 ft | 0 kts | 109° |
| 2026-04-28 18:57 | 41.92959 | 8.80480 | 32 ft | 0 kts | 109° |
| 2026-04-28 18:57 | 41.92942 | 8.80545 | 32 ft | 13 kts | 111° |
| 2026-04-28 18:57 | 41.92883 | 8.80553 | 31 ft | 3 kts | 203° |
| 2026-04-28 18:59 | 41.92678 | 8.80426 | 27 ft | 72 kts | 205° |
| 2026-04-28 18:59 | 41.92023 | 8.80017 | 20 ft | 133 kts | 205° |
| 2026-04-28 18:59 | 41.91077 | 8.79423 | 348 ft | 151 kts | 206° |
| 2026-04-28 19:00 | 41.90121 | 8.78818 | 960 ft | 153 kts | 208° |
| 2026-04-28 19:00 | 41.89166 | 8.78163 | 1555 ft | 155 kts | 213° |
| 2026-04-28 19:00 | 41.88279 | 8.77343 | 2173 ft | 154 kts | 218° |
| 2026-04-28 19:00 | 41.87430 | 8.76458 | 2767 ft | 155 kts | 218° |
| 2026-04-28 19:01 | 41.86554 | 8.75599 | 3290 ft | 158 kts | 214° |
| 2026-04-28 19:01 | 41.85594 | 8.74704 | 3482 ft | 183 kts | 212° |
| 2026-04-28 19:01 | 41.84493 | 8.73681 | 3804 ft | 204 kts | 212° |
| 2026-04-28 19:01 | 41.83256 | 8.72534 | 4118 ft | 228 kts | 212° |
| 2026-04-28 19:02 | 41.81880 | 8.71261 | 4536 ft | 252 kts | 213° |
| 2026-04-28 19:02 | 41.80402 | 8.69891 | 5217 ft | 262 kts | 213° |
| 2026-04-28 19:02 | 41.78889 | 8.68501 | 6119 ft | 265 kts | 212° |
| 2026-04-28 19:02 | 41.77357 | 8.67120 | 7001 ft | 267 kts | 212° |
| 2026-04-28 19:03 | 41.75804 | 8.65730 | 7832 ft | 270 kts | 213° |
| 2026-04-28 19:03 | 41.74230 | 8.64322 | 8665 ft | 274 kts | 213° |
| 2026-04-28 19:03 | 41.72738 | 8.62719 | 9462 ft | 279 kts | 230° |
| 2026-04-28 19:03 | 41.71884 | 8.60387 | 10202 ft | 286 kts | 257° |
| 2026-04-28 19:04 | 41.71973 | 8.57633 | 10460 ft | 313 kts | 287° |
| 2026-04-28 19:04 | 41.72980 | 8.54924 | 10668 ft | 339 kts | 302° |
| 2026-04-28 19:04 | 41.74371 | 8.52255 | 10948 ft | 357 kts | 301° |
| 2026-04-28 19:04 | 41.75671 | 8.49388 | 11562 ft | 362 kts | 298° |
| 2026-04-28 19:05 | 41.76888 | 8.46409 | 12240 ft | 366 kts | 296° |
| 2026-04-28 19:05 | 41.78081 | 8.43375 | 12942 ft | 370 kts | 296° |
| 2026-04-28 19:05 | 41.79288 | 8.40312 | 13632 ft | 374 kts | 296° |
| 2026-04-28 19:05 | 41.80524 | 8.37234 | 14258 ft | 377 kts | 297° |
| 2026-04-28 19:06 | 41.81803 | 8.34149 | 14874 ft | 381 kts | 300° |
| 2026-04-28 19:06 | 41.82815 | 8.32217 | 15277 ft | 384 kts | 307° |
| 2026-04-28 19:06 | 41.85432 | 8.28897 | 16086 ft | 392 kts | 322° |
| 2026-04-28 19:06 | 41.87796 | 8.27038 | 16690 ft | 397 kts | 332° |
| 2026-04-28 19:07 | 41.90283 | 8.25402 | 17303 ft | 400 kts | 332° |
| 2026-04-28 19:07 | 41.92789 | 8.23749 | 17917 ft | 403 kts | 332° |
| 2026-04-28 19:07 | 41.95314 | 8.22078 | 18492 ft | 406 kts | 332° |
| 2026-04-28 19:07 | 41.97855 | 8.20393 | 19018 ft | 409 kts | 332° |
| 2026-04-28 19:08 | 42.00411 | 8.18695 | 19541 ft | 411 kts | 332° |
| 2026-04-28 19:08 | 42.02983 | 8.16983 | 20059 ft | 414 kts | 332° |
| 2026-04-28 19:08 | 42.05570 | 8.15261 | 20559 ft | 416 kts | 332° |
| 2026-04-28 19:08 | 42.08173 | 8.13526 | 21050 ft | 419 kts | 332° |
| 2026-04-28 19:09 | 42.10755 | 8.11805 | 21522 ft | 421 kts | 332° |
| 2026-04-28 19:09 | 42.13388 | 8.10049 | 21918 ft | 423 kts | 331° |
| 2026-04-28 19:09 | 42.16035 | 8.08283 | 22016 ft | 428 kts | 331° |
| 2026-04-28 19:09 | 42.18741 | 8.06472 | 22029 ft | 440 kts | 331° |
| 2026-04-28 19:10 | 42.21507 | 8.04619 | 22027 ft | 446 kts | 331° |
| 2026-04-28 19:10 | 42.24297 | 8.02752 | 22030 ft | 448 kts | 332° |
| 2026-04-28 19:10 | 42.27092 | 8.00883 | 22030 ft | 448 kts | 332° |
| 2026-04-28 19:10 | 42.29885 | 7.99015 | 22030 ft | 448 kts | 332° |
| 2026-04-28 19:11 | 42.32759 | 7.97349 | 22027 ft | 450 kts | 338° |
| 2026-04-28 19:11 | 42.35706 | 7.95920 | 22034 ft | 451 kts | 338° |
| 2026-04-28 19:11 | 42.38662 | 7.94483 | 22032 ft | 452 kts | 338° |
| 2026-04-28 19:11 | 42.41619 | 7.93043 | 22029 ft | 452 kts | 338° |
| 2026-04-28 19:12 | 42.44578 | 7.91601 | 22032 ft | 452 kts | 338° |
| 2026-04-28 19:12 | 42.47535 | 7.90158 | 22031 ft | 452 kts | 338° |
| 2026-04-28 19:12 | 42.50491 | 7.88711 | 22038 ft | 452 kts | 338° |
| 2026-04-28 19:12 | 42.53453 | 7.87265 | 22034 ft | 452 kts | 338° |
| 2026-04-28 19:13 | 42.56408 | 7.85824 | 22032 ft | 452 kts | 338° |
| 2026-04-28 19:13 | 42.59368 | 7.84379 | 22031 ft | 452 kts | 338° |
| 2026-04-28 19:13 | 42.62326 | 7.82930 | 22031 ft | 452 kts | 338° |
| 2026-04-28 19:13 | 42.65284 | 7.81480 | 22031 ft | 452 kts | 338° |
| 2026-04-28 19:14 | 42.68239 | 7.80032 | 22029 ft | 452 kts | 338° |
| 2026-04-28 19:14 | 42.71197 | 7.78577 | 22034 ft | 452 kts | 338° |
| 2026-04-28 19:14 | 42.74158 | 7.77113 | 22033 ft | 452 kts | 338° |
| 2026-04-28 19:14 | 42.77115 | 7.75651 | 22045 ft | 452 kts | 337° |
| 2026-04-28 19:15 | 42.80071 | 7.74188 | 22042 ft | 452 kts | 337° |
| 2026-04-28 19:15 | 42.83027 | 7.72722 | 22043 ft | 452 kts | 337° |
| 2026-04-28 19:15 | 42.85984 | 7.71255 | 22039 ft | 452 kts | 337° |
| 2026-04-28 19:15 | 42.87946 | 7.70283 | 22039 ft | 452 kts | 337° |
| 2026-04-28 19:16 | 42.91904 | 7.68332 | 22040 ft | 453 kts | 337° |
| 2026-04-28 19:16 | 42.94869 | 7.66873 | 22044 ft | 453 kts | 337° |
| 2026-04-28 19:16 | 42.97826 | 7.65411 | 22046 ft | 453 kts | 337° |
| 2026-04-28 19:16 | 43.00785 | 7.63940 | 22049 ft | 452 kts | 337° |
| 2026-04-28 19:17 | 43.03651 | 7.62331 | 22043 ft | 449 kts | 329° |
| 2026-04-28 19:17 | 43.06281 | 7.59983 | 22046 ft | 444 kts | 317° |
| 2026-04-28 19:17 | 43.08467 | 7.57036 | 22044 ft | 440 kts | 307° |
| 2026-04-28 19:17 | 43.10167 | 7.53651 | 22038 ft | 436 kts | 296° |
| 2026-04-28 19:18 | 43.11377 | 7.49870 | 22032 ft | 432 kts | 285° |
| 2026-04-28 19:18 | 43.12057 | 7.45887 | 22032 ft | 430 kts | 277° |
| 2026-04-28 19:18 | 43.12544 | 7.41849 | 22033 ft | 430 kts | 277° |
| 2026-04-28 19:18 | 43.13026 | 7.37809 | 22034 ft | 430 kts | 277° |
| 2026-04-28 19:19 | 43.13502 | 7.33767 | 22033 ft | 430 kts | 277° |
| 2026-04-28 19:19 | 43.13975 | 7.29722 | 22034 ft | 430 kts | 277° |
| 2026-04-28 19:19 | 43.14448 | 7.25679 | 22034 ft | 430 kts | 277° |
| 2026-04-28 19:19 | 43.14921 | 7.21626 | 22033 ft | 431 kts | 277° |
| 2026-04-28 19:20 | 43.15394 | 7.17580 | 22029 ft | 431 kts | 277° |
| 2026-04-28 19:20 | 43.15867 | 7.13525 | 22032 ft | 431 kts | 277° |
| 2026-04-28 19:20 | 43.16338 | 7.09479 | 22036 ft | 431 kts | 277° |
| 2026-04-28 19:20 | 43.16810 | 7.05424 | 22036 ft | 431 kts | 277° |
| 2026-04-28 19:21 | 43.17281 | 7.01379 | 22031 ft | 431 kts | 277° |
| 2026-04-28 19:21 | 43.17752 | 6.97322 | 22042 ft | 431 kts | 277° |
| 2026-04-28 19:21 | 43.18219 | 6.93271 | 22041 ft | 431 kts | 277° |
| 2026-04-28 19:21 | 43.18682 | 6.89216 | 22043 ft | 431 kts | 277° |
| 2026-04-28 19:22 | 43.19142 | 6.85158 | 22043 ft | 431 kts | 277° |
| 2026-04-28 19:22 | 43.19444 | 6.82473 | 22046 ft | 431 kts | 276° |
| 2026-04-28 19:22 | 43.20058 | 6.77039 | 22044 ft | 431 kts | 277° |
| 2026-04-28 19:22 | 43.20515 | 6.72989 | 21960 ft | 430 kts | 276° |
| 2026-04-28 19:23 | 43.20968 | 6.68960 | 21697 ft | 427 kts | 276° |
| 2026-04-28 19:23 | 43.21418 | 6.64946 | 21440 ft | 425 kts | 276° |
| 2026-04-28 19:23 | 43.21854 | 6.60950 | 21184 ft | 423 kts | 274° |
| 2026-04-28 19:23 | 43.22011 | 6.56960 | 20700 ft | 416 kts | 269° |
| 2026-04-28 19:24 | 43.22071 | 6.53015 | 20014 ft | 412 kts | 269° |
| 2026-04-28 19:24 | 43.22123 | 6.49098 | 19364 ft | 408 kts | 269° |
| 2026-04-28 19:24 | 43.22174 | 6.45222 | 18734 ft | 406 kts | 269° |
| 2026-04-28 19:24 | 43.22226 | 6.41366 | 18212 ft | 405 kts | 269° |
| 2026-04-28 19:25 | 43.22279 | 6.37506 | 18007 ft | 405 kts | 269° |
| 2026-04-28 19:25 | 43.22332 | 6.33659 | 17389 ft | 404 kts | 269° |
| 2026-04-28 19:25 | 43.22385 | 6.29756 | 16264 ft | 413 kts | 269° |
| 2026-04-28 19:25 | 43.22440 | 6.25844 | 15743 ft | 406 kts | 270° |
| 2026-04-28 19:26 | 43.22496 | 6.22004 | 15217 ft | 400 kts | 270° |
| 2026-04-28 19:26 | 43.22549 | 6.18212 | 14684 ft | 396 kts | 270° |
| 2026-04-28 19:26 | 43.22599 | 6.14460 | 14144 ft | 391 kts | 270° |
| 2026-04-28 19:26 | 43.22643 | 6.10748 | 13547 ft | 388 kts | 270° |
| 2026-04-28 19:27 | 43.22678 | 6.07063 | 12958 ft | 384 kts | 270° |
| 2026-04-28 19:27 | 43.22709 | 6.03421 | 12345 ft | 380 kts | 270° |
| 2026-04-28 19:27 | 43.22885 | 5.99818 | 11814 ft | 377 kts | 277° |
| 2026-04-28 19:27 | 43.23251 | 5.96246 | 11719 ft | 379 kts | 277° |
| 2026-04-28 19:28 | 43.23602 | 5.92703 | 11632 ft | 381 kts | 277° |
| 2026-04-28 19:28 | 43.23952 | 5.89110 | 11487 ft | 380 kts | 277° |
| 2026-04-28 19:28 | 43.24299 | 5.85515 | 11328 ft | 380 kts | 276° |
| 2026-04-28 19:28 | 43.24646 | 5.81931 | 11172 ft | 378 kts | 276° |
| 2026-04-28 19:29 | 43.24985 | 5.78436 | 11028 ft | 361 kts | 277° |
| 2026-04-28 19:29 | 43.25205 | 5.76160 | 10941 ft | 350 kts | 276° |
| 2026-04-28 19:29 | 43.25616 | 5.71902 | 10782 ft | 331 kts | 276° |
| 2026-04-28 19:29 | 43.25912 | 5.68838 | 10660 ft | 318 kts | 277° |
| 2026-04-28 19:30 | 43.26195 | 5.65888 | 10542 ft | 306 kts | 276° |
| 2026-04-28 19:30 | 43.26465 | 5.63047 | 10370 ft | 297 kts | 276° |
| 2026-04-28 19:30 | 43.26729 | 5.60266 | 10214 ft | 292 kts | 276° |
| 2026-04-28 19:30 | 43.27005 | 5.57506 | 10090 ft | 292 kts | 277° |
| 2026-04-28 19:31 | 43.27317 | 5.54760 | 10032 ft | 291 kts | 277° |
| 2026-04-28 19:31 | 43.27644 | 5.52017 | 10031 ft | 291 kts | 278° |
| 2026-04-28 19:31 | 43.27975 | 5.49277 | 10032 ft | 291 kts | 278° |
| 2026-04-28 19:31 | 43.28304 | 5.46531 | 10027 ft | 291 kts | 278° |
| 2026-04-28 19:32 | 43.28626 | 5.43788 | 10029 ft | 291 kts | 278° |
| 2026-04-28 19:32 | 43.28945 | 5.41042 | 10031 ft | 291 kts | 277° |
| 2026-04-28 19:32 | 43.29263 | 5.38300 | 10031 ft | 291 kts | 278° |
| 2026-04-28 19:32 | 43.29581 | 5.35555 | 10028 ft | 291 kts | 277° |
| 2026-04-28 19:33 | 43.29898 | 5.32806 | 10031 ft | 291 kts | 277° |
| 2026-04-28 19:33 | 43.30213 | 5.30058 | 10029 ft | 292 kts | 278° |
| 2026-04-28 19:33 | 43.30525 | 5.27306 | 9944 ft | 290 kts | 278° |
| 2026-04-28 19:33 | 43.30833 | 5.24573 | 9549 ft | 289 kts | 277° |
| 2026-04-28 19:34 | 43.31141 | 5.21850 | 9136 ft | 288 kts | 278° |
| 2026-04-28 19:34 | 43.31450 | 5.19140 | 8747 ft | 287 kts | 277° |
| 2026-04-28 19:34 | 43.31758 | 5.16430 | 8321 ft | 287 kts | 277° |
| 2026-04-28 19:34 | 43.32063 | 5.13722 | 7886 ft | 287 kts | 277° |
| 2026-04-28 19:35 | 43.32362 | 5.11060 | 7678 ft | 286 kts | 277° |
| 2026-04-28 19:35 | 43.32671 | 5.08322 | 7556 ft | 287 kts | 277° |
| 2026-04-28 19:35 | 43.33126 | 5.05706 | 7426 ft | 287 kts | 293° |
| 2026-04-28 19:35 | 43.34302 | 5.03495 | 7302 ft | 289 kts | 320° |
| 2026-04-28 19:36 | 43.36048 | 5.02199 | 7183 ft | 287 kts | 346° |
| 2026-04-28 19:36 | 43.38028 | 5.01980 | 7066 ft | 286 kts | 3° |
| 2026-04-28 19:36 | 43.40018 | 5.02078 | 6945 ft | 286 kts | 3° |
| 2026-04-28 19:36 | 43.41999 | 5.01953 | 7004 ft | 287 kts | 350° |
| 2026-04-28 19:37 | 43.43898 | 5.01101 | 6965 ft | 290 kts | 334° |
| 2026-04-28 19:37 | 43.44502 | 5.00656 | 6788 ft | 292 kts | 328° |
| 2026-04-28 19:37 | 43.47026 | 4.97575 | 6029 ft | 292 kts | 315° |
| 2026-04-28 19:37 | 43.48464 | 4.95641 | 5666 ft | 287 kts | 316° |
| 2026-04-28 19:38 | 43.49896 | 4.93724 | 5236 ft | 287 kts | 316° |
| 2026-04-28 19:38 | 43.50841 | 4.92462 | 5038 ft | 283 kts | 316° |
| 2026-04-28 19:38 | 43.52213 | 4.90633 | 5001 ft | 266 kts | 316° |
| 2026-04-28 19:38 | 43.53500 | 4.88917 | 5005 ft | 250 kts | 315° |
| 2026-04-28 19:39 | 43.54725 | 4.87282 | 5011 ft | 243 kts | 315° |
| 2026-04-28 19:39 | 43.56030 | 4.85844 | 5008 ft | 240 kts | 335° |
| 2026-04-28 19:39 | 43.57634 | 4.85362 | 5011 ft | 236 kts | 6° |
| 2026-04-28 19:39 | 43.59178 | 4.85971 | 5004 ft | 231 kts | 34° |
| 2026-04-28 19:40 | 43.60317 | 4.87486 | 5028 ft | 228 kts | 61° |
| 2026-04-28 19:40 | 43.61118 | 4.89380 | 4984 ft | 231 kts | 63° |
| 2026-04-28 19:40 | 43.61885 | 4.91296 | 4799 ft | 223 kts | 71° |
| 2026-04-28 19:40 | 43.62153 | 4.93308 | 4633 ft | 208 kts | 96° |
| 2026-04-28 19:41 | 43.61825 | 4.95171 | 4470 ft | 196 kts | 118° |
| 2026-04-28 19:41 | 43.61032 | 4.96661 | 4324 ft | 192 kts | 135° |
| 2026-04-28 19:41 | 43.60103 | 4.97990 | 4239 ft | 192 kts | 134° |
| 2026-04-28 19:41 | 43.59171 | 4.99331 | 4029 ft | 193 kts | 134° |
| 2026-04-28 19:42 | 43.58245 | 5.00660 | 3823 ft | 190 kts | 134° |
| 2026-04-28 19:42 | 43.57347 | 5.01950 | 3564 ft | 182 kts | 134° |
| 2026-04-28 19:42 | 43.56503 | 5.03160 | 3331 ft | 165 kts | 134° |
| 2026-04-28 19:42 | 43.55754 | 5.04233 | 3122 ft | 147 kts | 134° |
| 2026-04-28 19:43 | 43.55070 | 5.05214 | 2935 ft | 139 kts | 134° |
| 2026-04-28 19:43 | 43.54412 | 5.06157 | 2752 ft | 135 kts | 134° |
| 2026-04-28 19:43 | 43.53765 | 5.07084 | 2575 ft | 133 kts | 134° |
| 2026-04-28 19:43 | 43.53121 | 5.08003 | 2421 ft | 133 kts | 135° |
| 2026-04-28 19:44 | 43.52477 | 5.08915 | 2266 ft | 133 kts | 135° |
| 2026-04-28 19:44 | 43.51836 | 5.09830 | 2070 ft | 132 kts | 135° |
| 2026-04-28 19:44 | 43.51205 | 5.10742 | 1910 ft | 131 kts | 134° |
| 2026-04-28 19:44 | 43.50580 | 5.11656 | 1757 ft | 131 kts | 134° |
| 2026-04-28 19:45 | 43.49947 | 5.12560 | 1533 ft | 131 kts | 135° |
| 2026-04-28 19:45 | 43.49306 | 5.13454 | 1342 ft | 131 kts | 135° |
| 2026-04-28 19:45 | 43.48675 | 5.14360 | 1158 ft | 131 kts | 134° |
| 2026-04-28 19:45 | 43.48042 | 5.15274 | 953 ft | 134 kts | 136° |
| 2026-04-28 19:46 | 43.47395 | 5.16193 | 746 ft | 133 kts | 136° |
| 2026-04-28 19:46 | 43.46747 | 5.17123 | 580 ft | 136 kts | 135° |
| 2026-04-28 19:46 | 43.46095 | 5.18056 | 434 ft | 138 kts | 135° |
| 2026-04-28 19:46 | 43.45423 | 5.19009 | 239 ft | 139 kts | 135° |
| 2026-04-28 19:47 | 43.44758 | 5.19969 | 94 ft | 138 kts | 138° |
| 2026-04-28 19:47 | 43.44122 | 5.20857 | 35 ft | 115 kts | 133° |
| 2026-04-28 19:47 | 43.43686 | 5.21482 | 36 ft | 66 kts | 133° |
| 2026-04-28 19:47 | 43.43472 | 5.21791 | 35 ft | 34 kts | 134° |
| 2026-04-28 19:48 | 43.43342 | 5.22007 | 36 ft | 21 kts | 104° |
| 2026-04-28 19:48 | 43.43335 | 5.22161 | 37 ft | 8 kts | 89° |
| 2026-04-28 19:48 | 43.43343 | 5.22233 | 36 ft | 7 kts | 69° |
| 2026-04-28 19:48 | 43.43369 | 5.22272 | 37 ft | 5 kts | 30° |
| 2026-04-28 19:49 | 43.43395 | 5.22282 | 37 ft | 6 kts | 8° |
| 2026-04-28 19:49 | 43.43460 | 5.22252 | 37 ft | 11 kts | 331° |
| 2026-04-28 19:49 | 43.43521 | 5.22205 | 37 ft | 9 kts | 330° |
| 2026-04-28 19:49 | 43.43573 | 5.22162 | 37 ft | 8 kts | 329° |
| 2026-04-28 19:50 | 43.43660 | 5.22104 | 37 ft | 6 kts | 360° |
| 2026-04-28 19:50 | 43.43692 | 5.22126 | 36 ft | 5 kts | 43° |
| 2026-04-28 19:50 | 43.43710 | 5.22159 | 37 ft | 5 kts | 55° |
| 2026-04-28 19:51 | 43.43744 | 5.22232 | 37 ft | 10 kts | 83° |
| 2026-04-28 19:51 | 43.43729 | 5.22313 | 37 ft | 8 kts | 90° |
| 2026-04-28 19:51 | 43.43746 | 5.22388 | 36 ft | 8 kts | 73° |
| 2026-04-28 19:51 | 43.43760 | 5.22455 | 37 ft | 7 kts | 74° |
| 2026-04-28 19:52 | 43.43804 | 5.22534 | 37 ft | 15 kts | 31° |
| 2026-04-28 19:52 | 43.43885 | 5.22548 | 36 ft | 9 kts | 345° |
| 2026-04-28 19:52 | 43.43924 | 5.22510 | 37 ft | 6 kts | 283° |
| 2026-04-28 19:52 | 43.43922 | 5.22471 | 37 ft | 2 kts | 264° |
| 2026-04-28 19:53 | 43.43922 | 5.22464 | 37 ft | 0 kts | 264° |